Terminal Aerodrome Forecast
Issued by NWS

Home | Current Version | Previous Version | Text Only | Print | Product List | Glossary On
Versions: 1 2 3 4 5 6 7 8 9 10 11 12 13 14 15 16 17 18 19 20 21 22 23 24 25 26 27 28
900
FTUS43 KDVN 010700 AAB
TAFCID
TAF AMD
KCID 010700Z 0107/0206 06012KT 3SM -RADZ BR OVC006
     FM010800 05013KT 4SM -DZ BR OVC004
     FM011100 05015KT 3SM BR OVC004
     FM011500 04012KT 2SM -SHRA BR OVC004
     FM011900 04010KT 3SM -RA BR OVC007
     FM012300 02008KT P6SM VCSH OVC009=

USA.gov is the U.S. government's official web portal to all federal, state and local government web resources and services.